sensor_id;sensor_type;location;lat;lon;timestamp;temperature;humidity
48206;DHT22;33995;48.202;16.260;2023-11-18T00:00:48;5.40;99.90
48206;DHT22;33995;48.202;16.260;2023-11-18T00:03:15;5.40;99.90
48206;DHT22;33995;48.202;16.260;2023-11-18T00:05:42;5.40;99.90
48206;DHT22;33995;48.202;16.260;2023-11-18T00:08:09;5.40;99.90
48206;DHT22;33995;48.202;16.260;2023-11-18T00:10:36;5.40;99.90
48206;DHT22;33995;48.202;16.260;2023-11-18T00:13:03;5.40;99.90
48206;DHT22;33995;48.202;16.260;2023-11-18T00:15:30;5.30;99.90
48206;DHT22;33995;48.202;16.260;2023-11-18T00:17:57;5.30;99.90
48206;DHT22;33995;48.202;16.260;2023-11-18T00:20:24;5.30;99.90
48206;DHT22;33995;48.202;16.260;2023-11-18T00:22:51;5.20;99.90
48206;DHT22;33995;48.202;16.260;2023-11-18T00:25:20;5.20;99.90
48206;DHT22;33995;48.202;16.260;2023-11-18T00:27:47;5.20;99.90
48206;DHT22;33995;48.202;16.260;2023-11-18T00:30:15;5.20;99.90
48206;DHT22;33995;48.202;16.260;2023-11-18T00:32:42;5.20;99.90
48206;DHT22;33995;48.202;16.260;2023-11-18T00:35:12;5.20;99.90
48206;DHT22;33995;48.202;16.260;2023-11-18T00:37:39;5.10;99.90
48206;DHT22;33995;48.202;16.260;2023-11-18T00:40:07;5.10;99.90
48206;DHT22;33995;48.202;16.260;2023-11-18T00:42:36;5.00;99.90
48206;DHT22;33995;48.202;16.260;2023-11-18T00:45:05;5.00;99.90
48206;DHT22;33995;48.202;16.260;2023-11-18T00:47:33;5.00;99.90
48206;DHT22;33995;48.202;16.260;2023-11-18T00:50:00;4.90;99.90
48206;DHT22;33995;48.202;16.260;2023-11-18T00:52:29;4.80;99.90
48206;DHT22;33995;48.202;16.260;2023-11-18T00:54:56;4.90;99.90
48206;DHT22;33995;48.202;16.260;2023-11-18T00:57:23;4.90;99.90
48206;DHT22;33995;48.202;16.260;2023-11-18T00:59:51;4.90;99.90
48206;DHT22;33995;48.202;16.260;2023-11-18T01:02:18;4.90;99.90
48206;DHT22;33995;48.202;16.260;2023-11-18T01:04:45;4.90;99.90
48206;DHT22;33995;48.202;16.260;2023-11-18T01:07:13;4.80;99.90
48206;DHT22;33995;48.202;16.260;2023-11-18T01:09:40;4.80;99.90
48206;DHT22;33995;48.202;16.260;2023-11-18T01:12:07;4.80;99.90
48206;DHT22;33995;48.202;16.260;2023-11-18T01:14:37;4.80;99.90
48206;DHT22;33995;48.202;16.260;2023-11-18T01:17:06;4.70;99.90
48206;DHT22;33995;48.202;16.260;2023-11-18T01:19:33;4.80;99.90
48206;DHT22;33995;48.202;16.260;2023-11-18T01:22:03;4.80;99.90
48206;DHT22;33995;48.202;16.260;2023-11-18T01:24:33;4.80;99.90
48206;DHT22;33995;48.202;16.260;2023-11-18T01:27:01;4.70;99.90
48206;DHT22;33995;48.202;16.260;2023-11-18T01:29:28;4.70;99.90
48206;DHT22;33995;48.202;16.260;2023-11-18T01:31:55;4.70;99.90
48206;DHT22;33995;48.202;16.260;2023-11-18T01:34:23;4.70;99.90
48206;DHT22;33995;48.202;16.260;2023-11-18T01:36:50;4.60;99.90
48206;DHT22;33995;48.202;16.260;2023-11-18T01:39:17;4.60;99.90
48206;DHT22;33995;48.202;16.260;2023-11-18T01:41:45;4.70;99.90
48206;DHT22;33995;48.202;16.260;2023-11-18T01:44:13;4.70;99.90
48206;DHT22;33995;48.202;16.260;2023-11-18T01:46:41;4.80;99.90
48206;DHT22;33995;48.202;16.260;2023-11-18T01:49:13;4.80;99.90
48206;DHT22;33995;48.202;16.260;2023-11-18T01:51:46;4.80;99.90
48206;DHT22;33995;48.202;16.260;2023-11-18T01:54:16;4.90;99.90
48206;DHT22;33995;48.202;16.260;2023-11-18T01:56:47;4.90;99.90
48206;DHT22;33995;48.202;16.260;2023-11-18T01:59:15;4.80;99.90
48206;DHT22;33995;48.202;16.260;2023-11-18T02:01:52;4.90;99.90
48206;DHT22;33995;48.202;16.260;2023-11-18T02:05:10;4.90;99.90
48206;DHT22;33995;48.202;16.260;2023-11-18T02:07:41;4.90;99.90
48206;DHT22;33995;48.202;16.260;2023-11-18T02:30:44;4.80;99.90
48206;DHT22;33995;48.202;16.260;2023-11-18T02:36:53;4.70;99.90
48206;DHT22;33995;48.202;16.260;2023-11-18T02:43:09;4.70;99.90
48206;DHT22;33995;48.202;16.260;2023-11-18T02:45:37;4.80;99.90
48206;DHT22;33995;48.202;16.260;2023-11-18T02:48:54;4.70;99.90
48206;DHT22;33995;48.202;16.260;2023-11-18T02:59:18;4.60;99.90
48206;DHT22;33995;48.202;16.260;2023-11-18T03:01:54;4.80;99.90
48206;DHT22;33995;48.202;16.260;2023-11-18T03:05:11;4.80;99.90
48206;DHT22;33995;48.202;16.260;2023-11-18T03:07:41;4.80;99.90
48206;DHT22;33995;48.202;16.260;2023-11-18T03:10:09;4.70;99.90
48206;DHT22;33995;48.202;16.260;2023-11-18T03:12:51;4.80;99.90
48206;DHT22;33995;48.202;16.260;2023-11-18T03:15:22;4.80;99.90
48206;DHT22;33995;48.202;16.260;2023-11-18T03:17:51;5.00;99.90
48206;DHT22;33995;48.202;16.260;2023-11-18T03:20:20;4.80;99.90
48206;DHT22;33995;48.202;16.260;2023-11-18T03:22:50;4.70;99.90
48206;DHT22;33995;48.202;16.260;2023-11-18T03:25:19;4.70;99.90
48206;DHT22;33995;48.202;16.260;2023-11-18T03:27:46;4.70;99.90
48206;DHT22;33995;48.202;16.260;2023-11-18T03:30:13;4.70;99.90
48206;DHT22;33995;48.202;16.260;2023-11-18T03:32:41;4.80;99.90
48206;DHT22;33995;48.202;16.260;2023-11-18T03:35:08;4.80;99.90
48206;DHT22;33995;48.202;16.260;2023-11-18T03:37:39;4.80;99.90
48206;DHT22;33995;48.202;16.260;2023-11-18T03:40:12;4.70;99.90
48206;DHT22;33995;48.202;16.260;2023-11-18T03:42:41;4.80;99.90
48206;DHT22;33995;48.202;16.260;2023-11-18T03:45:08;4.80;99.90
48206;DHT22;33995;48.202;16.260;2023-11-18T03:47:36;4.80;99.90
48206;DHT22;33995;48.202;16.260;2023-11-18T03:50:03;4.80;99.90
48206;DHT22;33995;48.202;16.260;2023-11-18T03:52:32;4.80;99.90
48206;DHT22;33995;48.202;16.260;2023-11-18T03:54:59;4.80;99.90
48206;DHT22;33995;48.202;16.260;2023-11-18T03:57:26;4.80;99.90
48206;DHT22;33995;48.202;16.260;2023-11-18T03:59:53;4.70;99.90
48206;DHT22;33995;48.202;16.260;2023-11-18T04:02:20;4.70;99.90
48206;DHT22;33995;48.202;16.260;2023-11-18T04:04:47;4.70;99.90
48206;DHT22;33995;48.202;16.260;2023-11-18T04:07:15;4.60;99.90
48206;DHT22;33995;48.202;16.260;2023-11-18T04:09:42;4.60;99.90
48206;DHT22;33995;48.202;16.260;2023-11-18T04:12:10;4.60;99.90
48206;DHT22;33995;48.202;16.260;2023-11-18T04:14:37;4.60;99.90
48206;DHT22;33995;48.202;16.260;2023-11-18T04:17:04;4.70;99.90
48206;DHT22;33995;48.202;16.260;2023-11-18T04:19:34;4.70;99.90
48206;DHT22;33995;48.202;16.260;2023-11-18T04:22:01;4.70;99.90
48206;DHT22;33995;48.202;16.260;2023-11-18T04:24:29;4.70;99.90
48206;DHT22;33995;48.202;16.260;2023-11-18T04:26:56;4.80;99.90
48206;DHT22;33995;48.202;16.260;2023-11-18T04:29:24;4.80;99.90
48206;DHT22;33995;48.202;16.260;2023-11-18T04:31:51;4.70;99.90
48206;DHT22;33995;48.202;16.260;2023-11-18T04:34:20;4.80;99.90
48206;DHT22;33995;48.202;16.260;2023-11-18T04:36:47;4.80;99.90
48206;DHT22;33995;48.202;16.260;2023-11-18T04:39:14;4.80;99.90
48206;DHT22;33995;48.202;16.260;2023-11-18T04:41:43;4.90;99.90
48206;DHT22;33995;48.202;16.260;2023-11-18T04:44:10;4.80;99.90
48206;DHT22;33995;48.202;16.260;2023-11-18T04:46:39;4.80;99.90
48206;DHT22;33995;48.202;16.260;2023-11-18T04:49:06;4.90;99.90
48206;DHT22;33995;48.202;16.260;2023-11-18T04:51:33;4.90;99.90
48206;DHT22;33995;48.202;16.260;2023-11-18T04:54:00;4.90;99.90
48206;DHT22;33995;48.202;16.260;2023-11-18T04:56:30;4.90;99.90
48206;DHT22;33995;48.202;16.260;2023-11-18T04:58:57;4.90;99.90
48206;DHT22;33995;48.202;16.260;2023-11-18T05:01:24;5.00;99.90
48206;DHT22;33995;48.202;16.260;2023-11-18T05:03:50;5.00;99.90
48206;DHT22;33995;48.202;16.260;2023-11-18T05:06:18;5.00;99.90
48206;DHT22;33995;48.202;16.260;2023-11-18T05:08:46;5.00;99.90
48206;DHT22;33995;48.202;16.260;2023-11-18T05:11:13;4.90;99.90
48206;DHT22;33995;48.202;16.260;2023-11-18T05:13:40;5.00;99.90
48206;DHT22;33995;48.202;16.260;2023-11-18T05:16:10;5.00;99.90
48206;DHT22;33995;48.202;16.260;2023-11-18T05:18:37;5.00;99.90
48206;DHT22;33995;48.202;16.260;2023-11-18T05:21:05;5.00;99.90
48206;DHT22;33995;48.202;16.260;2023-11-18T05:23:35;5.00;99.90
48206;DHT22;33995;48.202;16.260;2023-11-18T05:26:02;5.10;99.90
48206;DHT22;33995;48.202;16.260;2023-11-18T05:28:32;5.10;99.90
48206;DHT22;33995;48.202;16.260;2023-11-18T05:30:59;5.10;99.90
48206;DHT22;33995;48.202;16.260;2023-11-18T05:33:29;5.10;99.90
48206;DHT22;33995;48.202;16.260;2023-11-18T05:35:59;5.20;99.90
48206;DHT22;33995;48.202;16.260;2023-11-18T05:38:26;5.00;99.90
48206;DHT22;33995;48.202;16.260;2023-11-18T05:40:58;5.00;99.90
48206;DHT22;33995;48.202;16.260;2023-11-18T05:43:30;4.80;99.90
48206;DHT22;33995;48.202;16.260;2023-11-18T05:46:04;4.90;99.90
48206;DHT22;33995;48.202;16.260;2023-11-18T05:49:03;4.80;99.90
48206;DHT22;33995;48.202;16.260;2023-11-18T05:51:35;4.90;99.90
48206;DHT22;33995;48.202;16.260;2023-11-18T05:54:02;4.90;99.90
48206;DHT22;33995;48.202;16.260;2023-11-18T05:56:29;4.90;99.90
48206;DHT22;33995;48.202;16.260;2023-11-18T05:58:56;4.90;99.90
48206;DHT22;33995;48.202;16.260;2023-11-18T06:01:24;5.00;99.90
48206;DHT22;33995;48.202;16.260;2023-11-18T06:03:54;5.00;99.90
48206;DHT22;33995;48.202;16.260;2023-11-18T06:06:21;4.90;99.90
48206;DHT22;33995;48.202;16.260;2023-11-18T06:08:51;4.90;99.90
48206;DHT22;33995;48.202;16.260;2023-11-18T06:11:19;4.90;99.90
48206;DHT22;33995;48.202;16.260;2023-11-18T06:13:48;4.90;99.90
48206;DHT22;33995;48.202;16.260;2023-11-18T06:16:24;5.00;99.90
48206;DHT22;33995;48.202;16.260;2023-11-18T06:18:56;5.00;99.90
48206;DHT22;33995;48.202;16.260;2023-11-18T06:21:25;5.00;99.90
48206;DHT22;33995;48.202;16.260;2023-11-18T06:24:00;5.00;99.90
48206;DHT22;33995;48.202;16.260;2023-11-18T06:26:27;5.00;99.90
48206;DHT22;33995;48.202;16.260;2023-11-18T06:28:55;5.10;99.90
48206;DHT22;33995;48.202;16.260;2023-11-18T06:31:23;4.90;99.90
48206;DHT22;33995;48.202;16.260;2023-11-18T06:33:51;5.00;99.90
48206;DHT22;33995;48.202;16.260;2023-11-18T06:36:19;4.90;99.90
48206;DHT22;33995;48.202;16.260;2023-11-18T06:38:50;4.90;99.90
48206;DHT22;33995;48.202;16.260;2023-11-18T06:41:18;4.90;99.90
48206;DHT22;33995;48.202;16.260;2023-11-18T06:43:46;4.90;99.90
48206;DHT22;33995;48.202;16.260;2023-11-18T06:46:30;4.90;99.90
48206;DHT22;33995;48.202;16.260;2023-11-18T06:49:07;4.90;99.90
48206;DHT22;33995;48.202;16.260;2023-11-18T06:51:38;5.10;99.90
48206;DHT22;33995;48.202;16.260;2023-11-18T06:54:06;5.00;99.90
48206;DHT22;33995;48.202;16.260;2023-11-18T06:56:40;5.10;99.90
48206;DHT22;33995;48.202;16.260;2023-11-18T06:59:11;5.10;99.90
48206;DHT22;33995;48.202;16.260;2023-11-18T07:01:43;5.10;99.90
48206;DHT22;33995;48.202;16.260;2023-11-18T07:04:13;5.10;99.90
48206;DHT22;33995;48.202;16.260;2023-11-18T07:06:42;5.10;99.90
48206;DHT22;33995;48.202;16.260;2023-11-18T07:09:10;5.10;99.90
48206;DHT22;33995;48.202;16.260;2023-11-18T07:11:41;5.10;99.90
48206;DHT22;33995;48.202;16.260;2023-11-18T07:14:09;5.20;99.90
48206;DHT22;33995;48.202;16.260;2023-11-18T07:16:40;5.10;99.90
48206;DHT22;33995;48.202;16.260;2023-11-18T07:19:11;5.20;99.90
48206;DHT22;33995;48.202;16.260;2023-11-18T07:21:44;5.20;99.90
48206;DHT22;33995;48.202;16.260;2023-11-18T07:24:11;5.20;99.90
48206;DHT22;33995;48.202;16.260;2023-11-18T07:26:39;5.20;99.90
48206;DHT22;33995;48.202;16.260;2023-11-18T07:29:06;5.30;99.90
48206;DHT22;33995;48.202;16.260;2023-11-18T07:31:35;5.30;99.90
48206;DHT22;33995;48.202;16.260;2023-11-18T07:34:04;5.30;99.90
48206;DHT22;33995;48.202;16.260;2023-11-18T07:36:32;5.30;99.90
48206;DHT22;33995;48.202;16.260;2023-11-18T07:39:00;5.40;99.90
48206;DHT22;33995;48.202;16.260;2023-11-18T07:41:28;5.30;99.90
48206;DHT22;33995;48.202;16.260;2023-11-18T07:44:02;5.30;99.90
48206;DHT22;33995;48.202;16.260;2023-11-18T07:46:29;5.30;99.90
48206;DHT22;33995;48.202;16.260;2023-11-18T07:49:01;5.30;99.90
48206;DHT22;33995;48.202;16.260;2023-11-18T07:51:28;5.40;99.90
48206;DHT22;33995;48.202;16.260;2023-11-18T07:53:55;5.40;99.90
48206;DHT22;33995;48.202;16.260;2023-11-18T07:56:23;5.40;99.90
48206;DHT22;33995;48.202;16.260;2023-11-18T07:58:50;5.40;99.90
48206;DHT22;33995;48.202;16.260;2023-11-18T08:01:19;5.40;99.90
48206;DHT22;33995;48.202;16.260;2023-11-18T08:03:49;5.40;99.90
48206;DHT22;33995;48.202;16.260;2023-11-18T08:06:18;5.40;99.90
48206;DHT22;33995;48.202;16.260;2023-11-18T08:08:45;5.40;99.90
48206;DHT22;33995;48.202;16.260;2023-11-18T08:11:12;5.50;99.90
48206;DHT22;33995;48.202;16.260;2023-11-18T08:13:40;5.40;99.90
48206;DHT22;33995;48.202;16.260;2023-11-18T08:16:07;5.40;99.90
48206;DHT22;33995;48.202;16.260;2023-11-18T08:18:36;5.40;99.90
48206;DHT22;33995;48.202;16.260;2023-11-18T08:21:03;5.40;99.90
48206;DHT22;33995;48.202;16.260;2023-11-18T08:23:34;5.50;99.90
48206;DHT22;33995;48.202;16.260;2023-11-18T08:26:01;5.40;99.90
48206;DHT22;33995;48.202;16.260;2023-11-18T08:28:28;5.40;99.90
48206;DHT22;33995;48.202;16.260;2023-11-18T08:30:55;5.50;99.90
48206;DHT22;33995;48.202;16.260;2023-11-18T08:33:23;5.50;99.90
48206;DHT22;33995;48.202;16.260;2023-11-18T08:35:51;5.50;99.90
48206;DHT22;33995;48.202;16.260;2023-11-18T08:38:18;5.70;99.90
48206;DHT22;33995;48.202;16.260;2023-11-18T08:40:46;5.70;99.90
48206;DHT22;33995;48.202;16.260;2023-11-18T08:43:15;5.80;99.90
48206;DHT22;33995;48.202;16.260;2023-11-18T08:45:43;5.80;99.90
48206;DHT22;33995;48.202;16.260;2023-11-18T08:48:11;5.80;99.90
48206;DHT22;33995;48.202;16.260;2023-11-18T08:50:39;5.90;99.90
48206;DHT22;33995;48.202;16.260;2023-11-18T08:53:07;5.80;99.90
48206;DHT22;33995;48.202;16.260;2023-11-18T08:55:37;6.00;99.90
48206;DHT22;33995;48.202;16.260;2023-11-18T08:58:13;6.00;99.90
48206;DHT22;33995;48.202;16.260;2023-11-18T09:00:50;6.10;99.90
48206;DHT22;33995;48.202;16.260;2023-11-18T09:03:25;6.00;99.90
48206;DHT22;33995;48.202;16.260;2023-11-18T09:05:57;6.10;99.90
48206;DHT22;33995;48.202;16.260;2023-11-18T09:08:37;6.10;99.90
48206;DHT22;33995;48.202;16.260;2023-11-18T09:11:11;6.00;99.90
48206;DHT22;33995;48.202;16.260;2023-11-18T09:13:47;6.40;99.90
48206;DHT22;33995;48.202;16.260;2023-11-18T09:16:16;6.60;99.90
48206;DHT22;33995;48.202;16.260;2023-11-18T09:18:44;6.70;99.90
48206;DHT22;33995;48.202;16.260;2023-11-18T09:21:14;6.90;99.90
48206;DHT22;33995;48.202;16.260;2023-11-18T09:23:43;7.10;99.90
48206;DHT22;33995;48.202;16.260;2023-11-18T09:26:12;6.90;99.90
48206;DHT22;33995;48.202;16.260;2023-11-18T09:28:39;7.00;99.90
48206;DHT22;33995;48.202;16.260;2023-11-18T09:31:07;6.80;99.90
48206;DHT22;33995;48.202;16.260;2023-11-18T09:33:40;6.80;99.90
48206;DHT22;33995;48.202;16.260;2023-11-18T09:36:12;6.80;99.90
48206;DHT22;33995;48.202;16.260;2023-11-18T09:38:40;6.70;99.90
48206;DHT22;33995;48.202;16.260;2023-11-18T09:41:09;6.90;99.90
48206;DHT22;33995;48.202;16.260;2023-11-18T09:43:40;7.10;99.90
48206;DHT22;33995;48.202;16.260;2023-11-18T09:46:17;7.10;99.90
48206;DHT22;33995;48.202;16.260;2023-11-18T09:48:50;7.20;99.90
48206;DHT22;33995;48.202;16.260;2023-11-18T09:51:24;7.30;99.90
48206;DHT22;33995;48.202;16.260;2023-11-18T09:53:54;7.40;99.90
48206;DHT22;33995;48.202;16.260;2023-11-18T09:59:11;7.40;99.90
48206;DHT22;33995;48.202;16.260;2023-11-18T10:01:50;7.20;99.90
48206;DHT22;33995;48.202;16.260;2023-11-18T10:04:20;7.40;99.90
48206;DHT22;33995;48.202;16.260;2023-11-18T10:06:48;7.50;99.90
48206;DHT22;33995;48.202;16.260;2023-11-18T10:09:19;7.50;99.90
48206;DHT22;33995;48.202;16.260;2023-11-18T10:11:55;7.70;99.90
48206;DHT22;33995;48.202;16.260;2023-11-18T10:17:07;9.40;99.90
48206;DHT22;33995;48.202;16.260;2023-11-18T10:19:53;8.70;99.90
48206;DHT22;33995;48.202;16.260;2023-11-18T10:22:26;8.40;99.90
48206;DHT22;33995;48.202;16.260;2023-11-18T10:24:58;8.00;99.90
48206;DHT22;33995;48.202;16.260;2023-11-18T10:27:28;7.60;99.90
48206;DHT22;33995;48.202;16.260;2023-11-18T10:29:56;7.50;99.90
48206;DHT22;33995;48.202;16.260;2023-11-18T10:32:24;7.30;99.90
48206;DHT22;33995;48.202;16.260;2023-11-18T10:34:58;7.10;99.90
48206;DHT22;33995;48.202;16.260;2023-11-18T10:37:26;7.20;99.90
48206;DHT22;33995;48.202;16.260;2023-11-18T10:39:55;7.10;99.90
48206;DHT22;33995;48.202;16.260;2023-11-18T10:42:22;7.10;99.90
48206;DHT22;33995;48.202;16.260;2023-11-18T10:44:58;7.00;99.90
48206;DHT22;33995;48.202;16.260;2023-11-18T10:47:25;7.10;99.90
48206;DHT22;33995;48.202;16.260;2023-11-18T10:49:56;6.80;99.90
48206;DHT22;33995;48.202;16.260;2023-11-18T10:52:24;6.80;99.90
48206;DHT22;33995;48.202;16.260;2023-11-18T10:54:53;6.90;99.90
48206;DHT22;33995;48.202;16.260;2023-11-18T10:57:24;6.80;99.90
48206;DHT22;33995;48.202;16.260;2023-11-18T11:00:05;6.80;99.90
48206;DHT22;33995;48.202;16.260;2023-11-18T11:02:42;6.90;99.90
48206;DHT22;33995;48.202;16.260;2023-11-18T11:05:10;7.00;99.90
48206;DHT22;33995;48.202;16.260;2023-11-18T11:07:48;7.10;99.90
48206;DHT22;33995;48.202;16.260;2023-11-18T11:10:16;7.10;99.90
48206;DHT22;33995;48.202;16.260;2023-11-18T11:12:50;7.10;99.90
48206;DHT22;33995;48.202;16.260;2023-11-18T11:15:30;7.10;99.90
48206;DHT22;33995;48.202;16.260;2023-11-18T11:18:20;7.00;99.90
48206;DHT22;33995;48.202;16.260;2023-11-18T11:21:15;6.90;99.90
48206;DHT22;33995;48.202;16.260;2023-11-18T11:24:06;7.30;99.90
48206;DHT22;33995;48.202;16.260;2023-11-18T11:26:56;8.10;99.90
48206;DHT22;33995;48.202;16.260;2023-11-18T11:29:36;8.30;99.90
48206;DHT22;33995;48.202;16.260;2023-11-18T11:32:25;9.30;99.90
48206;DHT22;33995;48.202;16.260;2023-11-18T11:35:01;11.20;99.90
48206;DHT22;33995;48.202;16.260;2023-11-18T11:37:37;15.20;99.90
48206;DHT22;33995;48.202;16.260;2023-11-18T11:40:05;12.80;99.90
48206;DHT22;33995;48.202;16.260;2023-11-18T11:42:37;12.50;99.90
48206;DHT22;33995;48.202;16.260;2023-11-18T11:45:06;13.70;99.90
48206;DHT22;33995;48.202;16.260;2023-11-18T11:47:50;13.60;99.90
48206;DHT22;33995;48.202;16.260;2023-11-18T11:50:27;12.30;99.90
48206;DHT22;33995;48.202;16.260;2023-11-18T11:53:05;12.90;99.90
48206;DHT22;33995;48.202;16.260;2023-11-18T11:55:53;10.90;99.90
48206;DHT22;33995;48.202;16.260;2023-11-18T11:58:34;10.00;99.90
48206;DHT22;33995;48.202;16.260;2023-11-18T12:01:35;9.80;99.90
48206;DHT22;33995;48.202;16.260;2023-11-18T12:04:07;9.20;99.90
48206;DHT22;33995;48.202;16.260;2023-11-18T12:06:42;9.00;99.90
48206;DHT22;33995;48.202;16.260;2023-11-18T12:09:09;8.70;99.90
48206;DHT22;33995;48.202;16.260;2023-11-18T12:11:37;8.40;99.90
48206;DHT22;33995;48.202;16.260;2023-11-18T12:14:07;8.10;99.90
48206;DHT22;33995;48.202;16.260;2023-11-18T12:17:04;8.00;99.90
48206;DHT22;33995;48.202;16.260;2023-11-18T12:19:38;7.90;99.90
48206;DHT22;33995;48.202;16.260;2023-11-18T12:22:15;7.70;99.90
48206;DHT22;33995;48.202;16.260;2023-11-18T12:24:46;7.70;99.90
48206;DHT22;33995;48.202;16.260;2023-11-18T12:41:36;7.40;99.90
48206;DHT22;33995;48.202;16.260;2023-11-18T12:44:30;7.30;99.90
48206;DHT22;33995;48.202;16.260;2023-11-18T12:47:03;7.40;99.90
48206;DHT22;33995;48.202;16.260;2023-11-18T12:49:42;7.30;99.90
48206;DHT22;33995;48.202;16.260;2023-11-18T12:52:12;7.30;99.90
48206;DHT22;33995;48.202;16.260;2023-11-18T12:54:41;7.20;99.90
48206;DHT22;33995;48.202;16.260;2023-11-18T12:57:12;7.20;99.90
48206;DHT22;33995;48.202;16.260;2023-11-18T12:59:42;7.20;99.90
48206;DHT22;33995;48.202;16.260;2023-11-18T13:02:10;7.20;99.90
48206;DHT22;33995;48.202;16.260;2023-11-18T13:04:48;7.20;99.90
48206;DHT22;33995;48.202;16.260;2023-11-18T13:07:17;7.20;99.90
48206;DHT22;33995;48.202;16.260;2023-11-18T13:09:44;7.10;99.90
48206;DHT22;33995;48.202;16.260;2023-11-18T13:12:13;7.10;99.90
48206;DHT22;33995;48.202;16.260;2023-11-18T13:14:47;7.10;99.90
48206;DHT22;33995;48.202;16.260;2023-11-18T13:17:16;6.90;99.90
48206;DHT22;33995;48.202;16.260;2023-11-18T13:19:44;6.90;99.90
48206;DHT22;33995;48.202;16.260;2023-11-18T13:22:13;7.00;99.90
48206;DHT22;33995;48.202;16.260;2023-11-18T13:24:42;7.00;99.90
48206;DHT22;33995;48.202;16.260;2023-11-18T13:27:18;7.00;99.90
48206;DHT22;33995;48.202;16.260;2023-11-18T13:29:49;6.90;99.90
48206;DHT22;33995;48.202;16.260;2023-11-18T13:32:19;6.90;99.90
48206;DHT22;33995;48.202;16.260;2023-11-18T13:34:50;6.90;99.90
48206;DHT22;33995;48.202;16.260;2023-11-18T13:37:18;6.90;99.90
48206;DHT22;33995;48.202;16.260;2023-11-18T13:39:56;7.00;99.90
48206;DHT22;33995;48.202;16.260;2023-11-18T13:42:24;6.80;99.90
48206;DHT22;33995;48.202;16.260;2023-11-18T13:44:53;6.90;99.90
48206;DHT22;33995;48.202;16.260;2023-11-18T13:47:20;6.90;99.90
48206;DHT22;33995;48.202;16.260;2023-11-18T13:49:50;6.90;99.90
48206;DHT22;33995;48.202;16.260;2023-11-18T13:52:18;6.90;99.90
48206;DHT22;33995;48.202;16.260;2023-11-18T13:54:47;6.90;99.90
48206;DHT22;33995;48.202;16.260;2023-11-18T13:57:16;6.90;99.90
48206;DHT22;33995;48.202;16.260;2023-11-18T13:59:43;6.90;99.90
48206;DHT22;33995;48.202;16.260;2023-11-18T14:02:12;6.90;99.90
48206;DHT22;33995;48.202;16.260;2023-11-18T14:04:39;6.90;99.90
48206;DHT22;33995;48.202;16.260;2023-11-18T14:07:13;6.80;99.90
48206;DHT22;33995;48.202;16.260;2023-11-18T14:09:44;6.90;99.90
48206;DHT22;33995;48.202;16.260;2023-11-18T14:12:13;6.90;99.90
48206;DHT22;33995;48.202;16.260;2023-11-18T14:14:40;6.90;99.90
48206;DHT22;33995;48.202;16.260;2023-11-18T14:17:08;6.90;99.90
48206;DHT22;33995;48.202;16.260;2023-11-18T14:19:37;6.80;99.90
48206;DHT22;33995;48.202;16.260;2023-11-18T14:22:04;6.80;99.90
48206;DHT22;33995;48.202;16.260;2023-11-18T14:24:34;6.80;99.90
48206;DHT22;33995;48.202;16.260;2023-11-18T14:27:02;6.80;99.90
48206;DHT22;33995;48.202;16.260;2023-11-18T14:29:33;6.80;99.90
48206;DHT22;33995;48.202;16.260;2023-11-18T14:32:00;6.80;99.90
48206;DHT22;33995;48.202;16.260;2023-11-18T14:34:27;6.70;99.90
48206;DHT22;33995;48.202;16.260;2023-11-18T14:36:54;6.70;99.90
48206;DHT22;33995;48.202;16.260;2023-11-18T14:39:23;6.70;99.90
48206;DHT22;33995;48.202;16.260;2023-11-18T14:41:50;6.80;99.90
48206;DHT22;33995;48.202;16.260;2023-11-18T14:44:17;6.70;99.90
48206;DHT22;33995;48.202;16.260;2023-11-18T14:46:45;6.70;99.90
48206;DHT22;33995;48.202;16.260;2023-11-18T14:49:12;6.70;99.90
48206;DHT22;33995;48.202;16.260;2023-11-18T14:51:43;6.70;99.90
48206;DHT22;33995;48.202;16.260;2023-11-18T14:54:10;6.70;99.90
48206;DHT22;33995;48.202;16.260;2023-11-18T14:56:37;6.70;99.90
48206;DHT22;33995;48.202;16.260;2023-11-18T14:59:04;6.70;99.90
48206;DHT22;33995;48.202;16.260;2023-11-18T15:01:33;6.70;99.90
48206;DHT22;33995;48.202;16.260;2023-11-18T15:04:00;6.70;99.90
48206;DHT22;33995;48.202;16.260;2023-11-18T15:06:30;6.70;99.90
48206;DHT22;33995;48.202;16.260;2023-11-18T15:08:57;6.50;99.90
48206;DHT22;33995;48.202;16.260;2023-11-18T15:11:24;6.50;99.90
48206;DHT22;33995;48.202;16.260;2023-11-18T15:13:52;6.40;99.90
48206;DHT22;33995;48.202;16.260;2023-11-18T15:16:21;6.50;99.90
48206;DHT22;33995;48.202;16.260;2023-11-18T15:18:50;6.40;99.90
48206;DHT22;33995;48.202;16.260;2023-11-18T15:21:19;6.50;99.90
48206;DHT22;33995;48.202;16.260;2023-11-18T15:23:47;6.40;99.90
48206;DHT22;33995;48.202;16.260;2023-11-18T15:26:16;6.40;99.90
48206;DHT22;33995;48.202;16.260;2023-11-18T15:28:44;6.40;99.90
48206;DHT22;33995;48.202;16.260;2023-11-18T15:31:11;6.40;99.90
48206;DHT22;33995;48.202;16.260;2023-11-18T15:33:39;6.30;99.90
48206;DHT22;33995;48.202;16.260;2023-11-18T15:36:06;6.30;99.90
48206;DHT22;33995;48.202;16.260;2023-11-18T15:38:34;6.30;99.90
48206;DHT22;33995;48.202;16.260;2023-11-18T15:41:02;6.30;99.90
48206;DHT22;33995;48.202;16.260;2023-11-18T15:43:30;6.30;99.90
48206;DHT22;33995;48.202;16.260;2023-11-18T15:45:57;6.30;99.90
48206;DHT22;33995;48.202;16.260;2023-11-18T15:48:25;6.20;99.90
48206;DHT22;33995;48.202;16.260;2023-11-18T15:50:53;6.10;99.90
48206;DHT22;33995;48.202;16.260;2023-11-18T15:53:23;6.10;99.90
48206;DHT22;33995;48.202;16.260;2023-11-18T15:55:51;6.10;99.90
48206;DHT22;33995;48.202;16.260;2023-11-18T15:58:19;6.00;99.90
48206;DHT22;33995;48.202;16.260;2023-11-18T16:00:49;6.00;99.90
48206;DHT22;33995;48.202;16.260;2023-11-18T16:03:19;6.00;99.90
48206;DHT22;33995;48.202;16.260;2023-11-18T16:05:47;6.00;99.90
48206;DHT22;33995;48.202;16.260;2023-11-18T16:08:13;5.90;99.90
48206;DHT22;33995;48.202;16.260;2023-11-18T16:10:41;5.90;99.90
48206;DHT22;33995;48.202;16.260;2023-11-18T16:13:09;5.90;99.90
48206;DHT22;33995;48.202;16.260;2023-11-18T16:15:36;5.90;99.90
48206;DHT22;33995;48.202;16.260;2023-11-18T16:18:03;5.80;99.90
48206;DHT22;33995;48.202;16.260;2023-11-18T16:20:31;5.80;99.90
48206;DHT22;33995;48.202;16.260;2023-11-18T16:23:02;5.70;99.90
48206;DHT22;33995;48.202;16.260;2023-11-18T16:25:33;5.70;99.90
48206;DHT22;33995;48.202;16.260;2023-11-18T16:28:04;5.70;99.90
48206;DHT22;33995;48.202;16.260;2023-11-18T16:30:35;5.70;99.90
48206;DHT22;33995;48.202;16.260;2023-11-18T16:33:02;5.60;99.90
48206;DHT22;33995;48.202;16.260;2023-11-18T16:35:31;5.60;99.90
48206;DHT22;33995;48.202;16.260;2023-11-18T16:37:58;5.60;99.90
48206;DHT22;33995;48.202;16.260;2023-11-18T16:40:28;5.60;99.90
48206;DHT22;33995;48.202;16.260;2023-11-18T16:42:56;5.60;99.90
48206;DHT22;33995;48.202;16.260;2023-11-18T16:45:25;5.50;99.90